createdAt,value
2023-01-11T00:03:44.674Z,3.47
2023-01-11T00:09:38.070Z,3.50
2023-01-11T00:15:32.627Z,3.80
2023-01-11T00:21:28.187Z,3.20
2023-01-11T00:27:21.312Z,2.90
2023-01-11T00:33:16.066Z,3.20
2023-01-11T00:39:09.414Z,2.83
2023-01-11T00:45:20.497Z,3.20
2023-01-11T00:51:15.277Z,3.37
2023-01-11T00:57:09.073Z,3.27
2023-01-11T01:03:02.512Z,2.87
2023-01-11T01:08:57.724Z,2.60
2023-01-11T01:14:51.252Z,3.20
2023-01-11T01:20:44.759Z,3.80
2023-01-11T01:26:39.592Z,3.30
2023-01-11T01:32:32.977Z,3.63
2023-01-11T01:38:26.465Z,3.30
2023-01-11T01:44:59.447Z,3.40
2023-01-11T01:50:56.917Z,3.50
2023-01-11T01:56:53.629Z,3.10
2023-01-11T02:02:49.390Z,3.03
2023-01-11T02:08:46.104Z,3.20
2023-01-11T02:14:42.169Z,2.60
2023-01-11T02:20:59.315Z,2.50
2023-01-11T02:27:34.784Z,2.80
2023-01-11T02:33:36.620Z,3.03
2023-01-11T02:39:36.082Z,2.97
2023-01-11T02:45:39.753Z,2.80
2023-01-11T02:51:39.980Z,2.50
2023-01-11T02:57:35.223Z,2.80
2023-01-11T03:03:29.430Z,2.93
2023-01-11T03:09:31.237Z,2.80
2023-01-11T03:15:48.176Z,2.60
2023-01-11T03:21:51.470Z,2.10
2023-01-11T03:27:52.316Z,2.47
2023-01-11T03:33:53.806Z,2.10
2023-01-11T03:39:53.446Z,2.17
2023-01-11T03:45:53.410Z,1.90
2023-01-11T03:51:47.673Z,2.13
2023-01-11T03:57:45.211Z,1.70
2023-01-11T04:03:39.976Z,1.60
2023-01-11T04:09:33.369Z,1.47
2023-01-11T04:15:26.726Z,1.20
2023-01-11T04:21:21.459Z,1.40
2023-01-11T04:27:15.038Z,1.30
2023-01-11T04:33:08.486Z,1.13
2023-01-11T04:39:03.271Z,1.30
2023-01-11T04:44:56.736Z,1.30
2023-01-11T04:50:50.206Z,1.90
2023-01-11T04:56:44.899Z,1.57
2023-01-11T05:02:38.349Z,1.77
2023-01-11T05:08:32.078Z,1.43
2023-01-11T05:14:26.445Z,1.60
2023-01-11T05:20:19.989Z,1.60
2023-01-11T05:26:15.034Z,1.50
2023-01-11T05:32:09.941Z,1.70
2023-01-11T05:38:03.356Z,1.37
2023-01-11T05:44:14.615Z,1.27
2023-01-11T05:50:10.796Z,1.50
2023-01-11T05:56:04.029Z,1.10
2023-01-11T06:01:58.532Z,1.47
2023-01-11T06:07:58.814Z,1.20
2023-01-11T06:13:52.323Z,1.20
2023-01-11T06:19:45.747Z,1.10
2023-01-11T06:25:41.941Z,1.20
2023-01-11T06:31:36.188Z,1.20
2023-01-11T06:37:29.396Z,1.10
2023-01-11T06:43:25.622Z,1.20
2023-01-11T06:49:19.013Z,1.20
2023-01-11T06:55:11.954Z,1.20
2023-01-11T07:01:07.221Z,1.10
2023-01-11T07:07:00.774Z,1.50
2023-01-11T07:12:54.292Z,1.10
2023-01-11T07:18:48.751Z,1.40
2023-01-11T07:24:41.698Z,1.90
2023-01-11T07:30:55.452Z,1.50
2023-01-11T07:36:52.361Z,1.87
2023-01-11T07:43:07.217Z,1.90
2023-01-11T07:49:00.659Z,1.67
2023-01-11T07:54:55.228Z,1.70
2023-01-11T08:00:48.688Z,1.60
2023-01-11T08:06:42.286Z,1.57
2023-01-11T08:13:00.206Z,2.03
2023-01-11T08:18:53.690Z,2.00
2023-01-11T08:24:46.857Z,2.10
2023-01-11T08:30:41.329Z,2.30
2023-01-11T08:36:34.458Z,2.23
2023-01-11T08:42:27.695Z,2.40
2023-01-11T08:48:22.167Z,2.40
2023-01-11T08:54:17.536Z,3.40
2023-01-11T09:00:12.280Z,3.00
2023-01-11T09:06:07.116Z,2.70
2023-01-11T09:12:04.771Z,2.90
2023-01-11T09:17:59.222Z,3.00
2023-01-11T09:23:54.001Z,2.80
2023-01-11T09:29:47.561Z,2.87
2023-01-11T09:35:42.980Z,3.20
2023-01-11T09:42:07.849Z,3.63
2023-01-11T09:48:11.632Z,2.10
2023-01-11T09:54:08.110Z,4.17
2023-01-11T10:00:13.130Z,2.60
2023-01-11T10:06:13.821Z,1.47
2023-01-11T10:19:18.325Z,1.43
2023-01-11T10:25:11.865Z,1.60
2023-01-11T10:31:29.083Z,1.50
2023-01-11T10:37:44.534Z,1.80
2023-01-11T10:44:10.043Z,1.77
2023-01-11T10:50:09.203Z,1.80
2023-01-11T10:56:21.403Z,1.47
2023-01-11T11:02:30.121Z,1.87
2023-01-11T11:08:29.566Z,1.63
2023-01-11T11:14:31.140Z,1.57
2023-01-11T11:20:28.541Z,1.83
2023-01-11T11:26:23.444Z,1.60
2023-01-11T11:32:24.508Z,1.93
2023-01-11T11:38:24.322Z,1.43
2023-01-11T11:44:20.843Z,2.30
2023-01-11T11:50:43.278Z,2.90
2023-01-11T11:56:39.091Z,2.77
2023-01-11T12:02:34.529Z,2.97
2023-01-11T12:08:31.747Z,2.17
2023-01-11T12:14:28.817Z,2.20
2023-01-11T12:20:33.427Z,2.10
2023-01-11T12:26:34.113Z,2.13
2023-01-11T12:32:43.328Z,2.17
2023-01-11T12:38:45.414Z,2.30
2023-01-11T12:44:52.105Z,2.40
2023-01-11T12:50:56.885Z,2.23
2023-01-11T12:57:04.956Z,3.00
2023-01-11T13:03:29.553Z,2.70
2023-01-11T13:09:33.460Z,2.50
2023-01-11T13:15:35.709Z,2.70
2023-01-11T13:21:34.549Z,2.57
2023-01-11T13:27:32.052Z,3.07
2023-01-11T13:33:30.729Z,2.70
2023-01-11T13:39:33.667Z,3.40
2023-01-11T13:45:31.842Z,3.00
2023-01-11T13:51:32.757Z,2.90
2023-01-11T13:57:35.506Z,3.53
2023-01-11T14:03:32.452Z,3.13
2023-01-11T14:09:43.753Z,3.40
2023-01-11T14:15:44.302Z,3.13
2023-01-11T14:21:48.305Z,2.70
2023-01-11T14:28:04.013Z,2.80
2023-01-11T14:34:22.103Z,2.57
2023-01-11T14:40:59.682Z,3.13
2023-01-11T14:47:08.360Z,2.33
2023-01-11T14:53:06.438Z,2.50
2023-01-11T14:59:04.220Z,1.73
2023-01-11T15:05:11.321Z,1.90
2023-01-11T15:11:22.733Z,2.40
2023-01-11T15:17:37.463Z,2.27
2023-01-11T15:23:37.154Z,2.13
2023-01-11T15:29:33.502Z,2.30
2023-01-11T15:35:34.833Z,2.07
2023-01-11T15:42:02.231Z,2.07
2023-01-11T15:48:19.415Z,2.20
2023-01-11T15:54:36.419Z,2.20
2023-01-11T16:01:08.911Z,1.80
2023-01-11T16:07:13.467Z,2.27
2023-01-11T16:13:26.615Z,2.77
2023-01-11T16:19:22.620Z,2.23
2023-01-11T16:25:18.766Z,2.80
2023-01-11T16:31:11.793Z,2.07
2023-01-11T16:37:22.584Z,2.83
2023-01-11T16:43:23.189Z,2.60
2023-01-11T16:49:20.473Z,3.33
2023-01-11T16:55:20.571Z,3.00
2023-01-11T17:01:16.785Z,3.20
2023-01-11T17:07:15.055Z,3.13
2023-01-11T17:13:44.298Z,3.50
2023-01-11T17:19:44.360Z,3.10
2023-01-11T17:25:44.623Z,2.90
2023-01-11T17:31:40.907Z,2.90
2023-01-11T17:37:35.493Z,3.30
2023-01-11T17:43:47.896Z,4.23
2023-01-11T17:49:41.559Z,3.40
2023-01-11T17:55:36.510Z,3.53
2023-01-11T18:01:29.630Z,3.57
2023-01-11T18:07:22.726Z,3.83
2023-01-11T18:13:23.343Z,3.00
2023-01-11T18:19:25.812Z,4.63
2023-01-11T18:25:20.876Z,4.00
2023-01-11T18:31:15.415Z,3.50
2023-01-11T18:37:09.111Z,3.60
2023-01-11T18:43:02.564Z,3.80
2023-01-11T18:48:57.373Z,9.40
2023-01-11T18:54:50.513Z,3.77
2023-01-11T19:00:43.976Z,4.00
2023-01-11T19:06:38.754Z,4.00
2023-01-11T19:12:32.268Z,3.80
2023-01-11T19:18:25.737Z,4.53
2023-01-11T19:24:20.561Z,3.90
2023-01-11T19:30:14.502Z,4.27
2023-01-11T19:36:08.139Z,4.83
2023-01-11T19:42:03.397Z,3.90
2023-01-11T19:47:56.778Z,4.03
2023-01-11T19:53:50.199Z,4.00
2023-01-11T19:59:44.991Z,3.90
2023-01-11T20:05:38.478Z,3.80
2023-01-11T20:11:32.074Z,3.73
2023-01-11T20:17:26.864Z,4.40
2023-01-11T20:23:20.586Z,4.80
2023-01-11T20:29:14.498Z,4.27
2023-01-11T20:35:10.847Z,3.57
2023-01-11T20:41:09.886Z,3.70
2023-01-11T20:47:03.304Z,3.73
2023-01-11T20:52:59.753Z,3.70
2023-01-11T20:58:53.418Z,3.50
2023-01-11T21:04:46.859Z,3.57
2023-01-11T21:10:41.261Z,3.70
2023-01-11T21:16:34.674Z,3.47
2023-01-11T21:22:28.064Z,4.00
2023-01-11T21:28:22.937Z,3.43
2023-01-11T21:34:16.877Z,3.83
2023-01-11T21:40:12.123Z,4.10
2023-01-11T21:46:08.240Z,4.67
2023-01-11T21:52:01.974Z,3.60
2023-01-11T21:57:55.395Z,3.97
2023-01-11T22:03:50.329Z,4.00
2023-01-11T22:10:03.303Z,4.77
2023-01-11T22:16:01.974Z,3.70
2023-01-11T22:21:58.364Z,3.40
2023-01-11T22:27:51.765Z,3.87
2023-01-11T22:33:45.349Z,4.27
2023-01-11T22:39:40.941Z,3.20
2023-01-11T22:45:34.389Z,3.30
2023-01-11T22:51:28.249Z,4.00
2023-01-11T22:57:23.065Z,3.37
2023-01-11T23:03:16.626Z,3.10
2023-01-11T23:09:15.567Z,2.87
2023-01-11T23:15:11.984Z,3.53
2023-01-11T23:21:05.156Z,3.13
2023-01-11T23:26:58.618Z,3.03
2023-01-11T23:32:53.053Z,2.63
2023-01-11T23:38:47.384Z,2.07
2023-01-11T23:44:40.793Z,2.97
2023-01-11T23:50:35.643Z,2.37
2023-01-11T23:56:29.556Z,2.60
